Time;durP1;ratioP1;P1;durP2;ratioP2;P2;SDS_P1;SDS_P2;PMS_P1;PMS_P2;Temp;Humidity;BMP_temperature;BMP_pressure;BME280_temperature;BME280_humidity;BME280_pressure;Samples;Min_cycle;Max_cycle;Signal;HPM_P1;HPM_P2
2023/01/28 00:01:45;;;;;;;12.63;8.30;;;5.50;99.90;;;;;;5118476;28;20423;-74
2023/01/28 00:04:10;;;;;;;10.57;7.80;;;5.50;99.90;;;;;;5118771;28;20039;-74
2023/01/28 00:06:37;;;;;;;10.77;7.45;;;5.50;99.90;;;;;;5117513;28;20059;-73
2023/01/28 00:09:02;;;;;;;10.40;7.75;;;5.40;99.80;;;;;;5118406;28;20046;-73
2023/01/28 00:11:28;;;;;;;8.98;6.72;;;5.40;99.80;;;;;;5118251;28;20043;-73
2023/01/28 00:13:54;;;;;;;10.65;7.30;;;5.40;99.80;;;;;;5118310;28;20061;-73
2023/01/28 00:16:21;;;;;;;10.20;7.28;;;5.40;99.80;;;;;;5118505;28;20035;-74
2023/01/28 00:18:47;;;;;;;11.07;7.60;;;5.50;99.70;;;;;;5118531;28;20047;-74
2023/01/28 00:21:14;;;;;;;12.00;7.55;;;5.40;99.90;;;;;;5118153;28;20032;-73
2023/01/28 00:23:42;;;;;;;8.45;6.63;;;5.20;99.70;;;;;;5118053;28;20038;-73
2023/01/28 00:26:13;;;;;;;9.52;6.80;;;5.30;99.70;;;;;;5118316;28;20035;-74
2023/01/28 00:28:39;;;;;;;13.38;7.18;;;5.30;99.90;;;;;;5117978;28;20039;-74
2023/01/28 00:31:26;;;;;;;8.18;6.13;;;5.40;99.90;;;;;;5117855;28;20043;-80
2023/01/28 00:33:53;;;;;;;11.07;7.63;;;5.40;99.90;;;;;;5117947;28;20050;-74
2023/01/28 00:36:19;;;;;;;10.15;6.70;;;5.50;99.80;;;;;;5118165;28;20104;-74
2023/01/28 00:38:50;;;;;;;9.90;6.70;;;5.50;99.90;;;;;;5118084;28;20031;-74
2023/01/28 00:41:17;;;;;;;7.30;5.75;;;5.60;99.90;;;;;;5117595;28;20043;-74
2023/01/28 00:43:44;;;;;;;9.88;7.57;;;5.60;99.90;;;;;;5118061;28;20043;-74
2023/01/28 00:46:11;;;;;;;9.82;7.18;;;5.50;99.90;;;;;;5117674;28;20070;-74
2023/01/28 00:48:39;;;;;;;8.25;6.03;;;5.40;99.90;;;;;;5117889;28;20038;-74
2023/01/28 00:51:05;;;;;;;9.75;6.38;;;5.30;99.50;;;;;;5117877;28;20321;-74
2023/01/28 00:53:33;;;;;;;10.60;6.80;;;5.30;99.60;;;;;;5117673;28;20050;-73
2023/01/28 00:55:59;;;;;;;8.50;5.90;;;5.20;99.80;;;;;;5117799;28;20040;-74
2023/01/28 00:58:25;;;;;;;9.15;7.15;;;5.20;99.80;;;;;;5117721;28;20031;-73
2023/01/28 01:00:51;;;;;;;9.82;5.57;;;5.20;99.70;;;;;;5117728;28;20097;-74
2023/01/28 01:03:18;;;;;;;9.48;6.45;;;5.20;99.60;;;;;;5117309;28;20070;-73
2023/01/28 01:05:44;;;;;;;11.75;7.03;;;5.40;99.70;;;;;;5099430;28;20051;-74
2023/01/28 01:08:09;;;;;;;9.02;6.28;;;5.40;99.50;;;;;;5116548;28;20070;-74
2023/01/28 01:10:36;;;;;;;9.13;6.72;;;5.40;99.60;;;;;;5117052;28;20428;-74
2023/01/28 01:13:04;;;;;;;10.10;7.03;;;5.40;99.50;;;;;;5117482;28;20082;-73
2023/01/28 01:15:29;;;;;;;11.60;6.40;;;5.30;99.60;;;;;;5117556;28;20108;-73
2023/01/28 01:17:55;;;;;;;8.70;6.15;;;5.40;99.60;;;;;;5117504;28;20416;-73
2023/01/28 01:20:25;;;;;;;9.68;6.93;;;5.40;99.60;;;;;;5117490;28;20074;-74
2023/01/28 01:22:51;;;;;;;10.02;6.78;;;5.50;99.80;;;;;;5117408;28;20036;-73
2023/01/28 01:25:17;;;;;;;8.32;6.22;;;5.40;99.70;;;;;;5117282;28;20094;-74
2023/01/28 01:27:47;;;;;;;8.98;6.40;;;5.40;99.70;;;;;;5117381;28;20115;-73
2023/01/28 01:30:13;;;;;;;7.68;5.63;;;5.40;99.70;;;;;;5117315;28;20047;-73
2023/01/28 01:32:39;;;;;;;7.88;4.93;;;5.30;99.60;;;;;;5116559;28;20055;-74
2023/01/28 01:35:06;;;;;;;5.97;4.00;;;5.30;99.70;;;;;;5117297;28;20027;-74
2023/01/28 01:37:35;;;;;;;4.60;4.00;;;5.40;99.50;;;;;;5116994;28;20051;-74
2023/01/28 01:40:03;;;;;;;4.55;3.53;;;5.40;99.60;;;;;;5116930;28;20421;-74
2023/01/28 01:42:31;;;;;;;4.60;3.85;;;5.40;99.60;;;;;;5116715;28;20441;-74
2023/01/28 01:45:13;;;;;;;4.95;3.40;;;5.30;99.40;;;;;;5117138;28;20108;-74
2023/01/28 01:48:13;;;;;;;5.45;3.20;;;5.20;99.60;;;;;;5116922;28;20052;-74
2023/01/28 01:50:53;;;;;;;5.65;3.58;;;5.20;99.50;;;;;;5117180;28;20040;-75
2023/01/28 01:53:21;;;;;;;5.15;3.53;;;5.20;99.70;;;;;;5116795;28;20044;-74
2023/01/28 01:55:49;;;;;;;5.90;3.15;;;5.30;99.60;;;;;;5116774;28;20039;-74
2023/01/28 01:58:19;;;;;;;5.28;3.30;;;5.30;99.70;;;;;;5116800;28;20425;-74
2023/01/28 02:00:45;;;;;;;5.68;3.35;;;5.20;99.30;;;;;;5117045;28;20036;-74
2023/01/28 02:03:11;;;;;;;6.10;2.92;;;5.10;99.30;;;;;;5116666;28;20135;-73
2023/01/28 02:05:38;;;;;;;4.07;3.20;;;5.20;99.40;;;;;;5116965;28;20058;-74
2023/01/28 02:08:22;;;;;;;6.40;3.38;;;5.30;99.50;;;;;;5117010;28;20036;-74
2023/01/28 02:10:58;;;;;;;6.53;3.67;;;5.40;99.40;;;;;;5116978;28;20082;-74
2023/01/28 02:13:28;;;;;;;5.43;2.80;;;5.40;99.40;;;;;;5116616;28;20040;-73
2023/01/28 02:15:56;;;;;;;3.95;3.17;;;5.40;99.40;;;;;;5116637;28;20489;-73
2023/01/28 02:18:21;;;;;;;4.70;2.90;;;5.30;99.20;;;;;;5116891;28;20151;-73
2023/01/28 02:20:57;;;;;;;4.30;3.15;;;5.30;99.50;;;;;;5116890;28;20093;-74
2023/01/28 02:23:37;;;;;;;3.37;2.90;;;5.40;99.50;;;;;;5117618;28;20400;-74
2023/01/28 02:26:29;;;;;;;3.92;2.70;;;5.30;99.50;;;;;;5120769;28;20043;-74
2023/01/28 02:29:14;;;;;;;3.30;2.80;;;5.30;99.70;;;;;;5120369;27;20039;-74
2023/01/28 02:31:54;;;;;;;4.13;2.90;;;5.30;99.80;;;;;;5120162;28;20089;-74
2023/01/28 02:34:34;;;;;;;4.00;2.78;;;5.30;99.80;;;;;;5119386;28;20050;-74
2023/01/28 02:37:06;;;;;;;3.67;2.78;;;5.40;99.80;;;;;;5120249;28;20478;-74
2023/01/28 02:39:36;;;;;;;3.80;3.10;;;5.40;99.90;;;;;;5120416;28;20048;-73
2023/01/28 02:42:30;;;;;;;3.70;3.00;;;5.40;99.80;;;;;;5119869;28;20459;-74
2023/01/28 02:44:56;;;;;;;3.63;3.17;;;5.30;99.70;;;;;;5120089;28;20420;-74
2023/01/28 02:50:16;;;;;;;5.57;3.10;;;5.30;99.80;;;;;;5120286;28;20101;-73
2023/01/28 02:56:15;;;;;;;3.85;2.33;;;5.40;99.80;;;;;;5120165;28;20437;-74
2023/01/28 02:58:57;;;;;;;3.83;2.55;;;5.40;99.70;;;;;;5119695;28;20032;-73
2023/01/28 03:01:36;;;;;;;2.80;2.50;;;5.50;99.80;;;;;;5118712;28;20039;-74
2023/01/28 03:04:22;;;;;;;3.85;2.33;;;5.50;99.60;;;;;;5120071;28;20043;-74
2023/01/28 03:06:53;;;;;;;2.88;2.30;;;5.40;99.40;;;;;;5119966;28;20066;-74
2023/01/28 03:09:25;;;;;;;3.17;2.30;;;5.40;99.60;;;;;;5119944;28;20071;-74
2023/01/28 03:38:21;;;;;;;;;;;5.30;99.90;;;;;;5119594;28;20463;-74
2023/01/28 03:41:01;;;;;;;3.63;2.97;;;5.30;99.90;;;;;;5119106;28;19919;-74
2023/01/28 03:43:30;;;;;;;5.03;3.05;;;5.30;99.90;;;;;;5118816;28;20054;-74
2023/01/28 03:45:56;;;;;;;4.30;3.30;;;5.30;99.90;;;;;;5119004;28;20047;-74
2023/01/28 03:48:24;;;;;;;4.60;3.15;;;5.30;99.90;;;;;;5118927;28;20036;-73
2023/01/28 03:50:50;;;;;;;4.60;3.20;;;5.30;99.90;;;;;;5118961;28;20039;-74
2023/01/28 03:53:18;;;;;;;3.70;3.22;;;5.40;99.90;;;;;;5118612;27;20416;-74
2023/01/28 03:55:46;;;;;;;4.90;2.78;;;5.30;99.90;;;;;;5118469;28;20446;-74
2023/01/28 03:58:12;;;;;;;7.22;3.60;;;5.20;99.90;;;;;;5118973;28;20367;-74
2023/01/28 04:00:42;;;;;;;4.80;3.25;;;5.30;99.90;;;;;;5118905;28;20035;-73
2023/01/28 04:03:15;;;;;;;4.82;3.03;;;5.30;99.90;;;;;;5118405;28;20044;-74
2023/01/28 04:05:42;;;;;;;4.07;2.88;;;5.30;99.90;;;;;;5118839;28;20302;-74
2023/01/28 04:08:08;;;;;;;4.57;3.45;;;5.30;99.90;;;;;;5118695;28;20126;-74
2023/01/28 04:10:33;;;;;;;5.15;3.55;;;5.30;99.90;;;;;;5118717;28;20439;-74
2023/01/28 04:12:59;;;;;;;5.13;4.13;;;5.30;99.90;;;;;;5118587;28;20047;-73
2023/01/28 04:15:25;;;;;;;7.47;3.33;;;5.40;99.90;;;;;;5117243;28;20044;-74
2023/01/28 04:17:50;;;;;;;5.63;3.50;;;5.30;99.90;;;;;;5118466;28;20321;-74
2023/01/28 04:20:16;;;;;;;4.95;3.60;;;5.30;99.90;;;;;;5118484;28;20047;-74
2023/01/28 04:22:42;;;;;;;4.97;3.30;;;5.30;99.90;;;;;;5118448;28;20047;-74
2023/01/28 04:25:08;;;;;;;5.13;3.65;;;5.20;99.90;;;;;;5118382;28;20042;-74
2023/01/28 04:27:34;;;;;;;5.28;3.60;;;5.20;99.90;;;;;;5118339;28;20126;-73
2023/01/28 04:29:59;;;;;;;4.82;3.95;;;5.30;99.90;;;;;;5117985;28;20441;-74
2023/01/28 04:32:25;;;;;;;7.93;3.72;;;5.30;99.90;;;;;;5117792;28;20032;-74
2023/01/28 04:34:51;;;;;;;5.65;3.83;;;5.30;99.90;;;;;;5118207;28;20036;-74
2023/01/28 04:37:17;;;;;;;6.07;4.15;;;5.40;99.90;;;;;;5118154;28;20498;-73
2023/01/28 04:39:42;;;;;;;4.78;3.85;;;5.30;99.90;;;;;;5117814;28;20120;-74
2023/01/28 04:42:08;;;;;;;5.05;3.78;;;5.30;99.90;;;;;;5116566;28;20100;-74
2023/01/28 04:44:34;;;;;;;6.05;4.13;;;5.20;99.90;;;;;;5117965;28;20058;-73
2023/01/28 04:46:59;;;;;;;6.32;3.90;;;5.30;99.90;;;;;;5117237;28;20036;-74
2023/01/28 04:49:25;;;;;;;5.05;3.83;;;5.30;99.90;;;;;;5118003;28;20070;-74
2023/01/28 04:51:51;;;;;;;5.70;3.80;;;5.20;99.90;;;;;;5117799;28;20481;-74
2023/01/28 04:54:16;;;;;;;5.72;4.00;;;5.20;99.90;;;;;;5117853;28;20039;-74
2023/01/28 04:56:42;;;;;;;7.40;4.03;;;5.20;99.90;;;;;;5117841;28;20325;-74
2023/01/28 04:59:08;;;;;;;5.22;4.15;;;5.20;99.90;;;;;;5117809;28;20328;-74
2023/01/28 05:01:33;;;;;;;8.25;4.80;;;5.10;99.90;;;;;;5117384;28;20118;-74
2023/01/28 05:04:04;;;;;;;7.13;5.22;;;5.00;99.90;;;;;;5117432;28;20035;-74
2023/01/28 05:06:30;;;;;;;9.73;4.95;;;4.90;99.90;;;;;;5117719;28;20133;-74
2023/01/28 05:08:56;;;;;;;8.68;4.88;;;4.70;99.90;;;;;;5117361;28;20031;-74
2023/01/28 05:11:22;;;;;;;6.47;4.45;;;4.80;99.90;;;;;;5117530;28;20044;-74
2023/01/28 05:13:48;;;;;;;6.10;4.57;;;4.90;99.90;;;;;;5117567;28;20035;-74
2023/01/28 05:16:14;;;;;;;7.13;5.00;;;4.90;99.90;;;;;;5117551;28;20034;-74
2023/01/28 05:18:39;;;;;;;7.85;4.88;;;5.00;99.90;;;;;;5116154;28;20041;-74
2023/01/28 05:21:05;;;;;;;7.45;5.03;;;5.00;99.90;;;;;;5117485;28;20040;-74
2023/01/28 05:23:31;;;;;;;7.75;5.20;;;5.00;99.90;;;;;;5117090;28;20039;-74
2023/01/28 05:25:56;;;;;;;10.48;5.65;;;5.00;99.90;;;;;;5117413;28;20071;-74
2023/01/28 05:28:22;;;;;;;7.97;5.05;;;5.10;99.90;;;;;;5117374;28;20040;-74
2023/01/28 05:30:48;;;;;;;7.50;5.63;;;5.00;99.90;;;;;;5116036;28;20340;-74
2023/01/28 05:33:13;;;;;;;11.00;6.43;;;5.00;99.90;;;;;;5115871;28;20043;-74
2023/01/28 05:35:39;;;;;;;6.80;5.35;;;5.00;99.90;;;;;;5117253;28;20043;-74
2023/01/28 05:38:05;;;;;;;8.85;5.75;;;5.00;99.90;;;;;;5117278;28;20040;-74
2023/01/28 05:40:30;;;;;;;8.82;5.97;;;5.00;99.90;;;;;;5117269;28;20417;-74
2023/01/28 05:42:56;;;;;;;7.85;5.45;;;5.10;99.90;;;;;;5116849;28;20051;-74
2023/01/28 05:45:22;;;;;;;9.38;5.80;;;5.10;99.90;;;;;;5117179;28;20048;-74
2023/01/28 05:47:47;;;;;;;9.70;6.43;;;5.10;99.90;;;;;;5117204;28;20126;-74
2023/01/28 05:50:14;;;;;;;10.60;6.32;;;5.20;99.90;;;;;;5117155;28;20320;-74
2023/01/28 05:52:39;;;;;;;8.40;6.70;;;4.90;99.90;;;;;;5116741;28;20523;-74
2023/01/28 05:55:06;;;;;;;9.60;6.45;;;4.60;99.90;;;;;;5116861;28;20118;-74
2023/01/28 05:57:32;;;;;;;7.65;5.78;;;4.40;99.90;;;;;;5119189;28;20040;-74
2023/01/28 05:59:59;;;;;;;9.75;6.32;;;4.50;99.90;;;;;;5121236;28;20097;-74
2023/01/28 06:02:24;;;;;;;9.27;5.57;;;4.60;99.90;;;;;;5120838;28;20031;-74
2023/01/28 06:04:50;;;;;;;10.48;6.68;;;4.70;99.90;;;;;;5121153;28;20310;-74
2023/01/28 06:07:19;;;;;;;9.07;6.45;;;4.80;99.90;;;;;;5119846;28;20044;-75
2023/01/28 06:09:46;;;;;;;10.25;6.80;;;4.80;99.90;;;;;;5121084;28;20123;-74
2023/01/28 06:12:11;;;;;;;12.65;6.22;;;4.90;99.90;;;;;;5120950;28;20321;-73
2023/01/28 06:14:37;;;;;;;9.45;6.60;;;4.90;99.90;;;;;;5120979;28;20044;-74
2023/01/28 06:17:02;;;;;;;10.50;6.40;;;5.00;99.90;;;;;;5119938;28;20066;-74
2023/01/28 06:19:28;;;;;;;12.50;7.28;;;5.00;99.90;;;;;;5119582;28;20038;-74
2023/01/28 06:21:54;;;;;;;11.32;7.30;;;5.10;99.90;;;;;;5120824;28;20145;-73
2023/01/28 06:24:20;;;;;;;10.20;7.00;;;4.90;99.90;;;;;;5120758;28;20448;-74
2023/01/28 06:26:46;;;;;;;11.05;7.07;;;4.90;99.90;;;;;;5102421;28;20120;-74
2023/01/28 06:29:11;;;;;;;9.57;7.00;;;4.80;99.90;;;;;;5120691;28;20085;-74
2023/01/28 06:31:37;;;;;;;8.40;6.40;;;4.90;99.90;;;;;;5119875;28;20043;-74
2023/01/28 06:34:03;;;;;;;12.50;8.25;;;5.00;99.90;;;;;;5120672;28;20040;-74
2023/01/28 06:36:29;;;;;;;9.57;6.93;;;5.00;99.90;;;;;;5120547;27;20115;-74
2023/01/28 06:38:55;;;;;;;10.02;7.13;;;4.90;99.90;;;;;;5120484;27;20032;-74
2023/01/28 06:41:21;;;;;;;8.75;6.78;;;4.90;99.90;;;;;;5120207;28;20046;-74
2023/01/28 06:43:48;;;;;;;9.90;6.60;;;5.00;99.90;;;;;;5121122;28;20066;-74
2023/01/28 06:46:13;;;;;;;8.88;6.45;;;5.00;99.90;;;;;;5120357;28;20092;-74
2023/01/28 06:48:39;;;;;;;9.02;6.65;;;5.00;99.90;;;;;;5120071;27;20047;-74
2023/01/28 06:51:05;;;;;;;12.88;7.45;;;5.10;99.90;;;;;;5120281;28;20126;-74
2023/01/28 06:53:30;;;;;;;10.13;7.28;;;5.10;99.90;;;;;;5120132;28;20032;-74
2023/01/28 06:55:56;;;;;;;11.80;7.78;;;5.10;99.90;;;;;;5120215;28;20074;-74
2023/01/28 06:58:22;;;;;;;9.07;6.40;;;5.00;99.90;;;;;;5120129;28;20040;-74
2023/01/28 07:00:47;;;;;;;9.35;6.88;;;4.80;99.90;;;;;;5120067;28;20047;-74
2023/01/28 07:03:14;;;;;;;9.90;7.00;;;4.80;99.90;;;;;;5119591;28;20036;-74
2023/01/28 07:05:40;;;;;;;13.70;8.55;;;4.90;99.90;;;;;;5120016;27;20039;-73
2023/01/28 07:08:06;;;;;;;11.00;7.35;;;4.80;99.90;;;;;;5119396;28;20039;-74
2023/01/28 07:10:31;;;;;;;8.43;6.40;;;4.80;99.90;;;;;;5119287;28;20043;-74
2023/01/28 07:12:57;;;;;;;10.52;7.65;;;4.80;99.90;;;;;;5119785;28;20036;-74
2023/01/28 07:15:23;;;;;;;11.50;7.35;;;4.80;99.90;;;;;;5119777;28;20046;-74
2023/01/28 07:17:48;;;;;;;11.68;7.25;;;4.80;99.90;;;;;;5118712;28;20347;-74
2023/01/28 07:20:16;;;;;;;11.63;7.07;;;4.80;99.90;;;;;;5118429;28;20421;-73
2023/01/28 07:22:42;;;;;;;10.25;6.80;;;4.80;99.90;;;;;;5119675;28;20035;-74
2023/01/28 07:25:09;;;;;;;10.70;7.45;;;4.80;99.90;;;;;;5119580;27;20043;-74
2023/01/28 07:27:35;;;;;;;11.93;7.38;;;4.70;99.90;;;;;;5119275;28;20417;-74
2023/01/28 07:30:00;;;;;;;10.25;7.72;;;4.70;99.90;;;;;;5119534;28;20133;-74
2023/01/28 07:32:26;;;;;;;11.15;7.18;;;4.60;99.90;;;;;;5119026;28;20027;-74
2023/01/28 07:34:52;;;;;;;12.00;7.47;;;4.60;99.90;;;;;;5119141;28;20470;-75
2023/01/28 07:37:19;;;;;;;10.85;7.38;;;4.60;99.90;;;;;;5119339;28;20055;-74
2023/01/28 07:39:44;;;;;;;10.43;7.40;;;4.60;99.90;;;;;;5119076;28;20040;-74
2023/01/28 07:42:10;;;;;;;14.20;8.13;;;4.50;99.90;;;;;;5118989;28;20129;-74
2023/01/28 07:44:36;;;;;;;10.73;7.20;;;4.50;99.90;;;;;;5119038;28;20069;-74
2023/01/28 07:47:05;;;;;;;13.80;7.88;;;4.40;99.90;;;;;;5119140;28;20035;-74
2023/01/28 07:49:32;;;;;;;12.45;7.38;;;4.40;99.90;;;;;;5119150;28;20038;-74
2023/01/28 07:51:58;;;;;;;10.48;6.97;;;4.30;99.90;;;;;;5119012;28;20103;-74
2023/01/28 07:54:24;;;;;;;10.40;7.18;;;4.30;99.90;;;;;;5118787;28;20468;-74
2023/01/28 07:56:49;;;;;;;12.73;8.30;;;4.30;99.90;;;;;;5118047;28;20070;-74
2023/01/28 07:59:15;;;;;;;12.43;8.48;;;4.20;99.90;;;;;;5118950;28;20035;-74
2023/01/28 08:01:41;;;;;;;14.85;9.82;;;4.10;99.90;;;;;;5118512;28;20031;-74
2023/01/28 08:04:06;;;;;;;12.95;8.45;;;4.10;99.90;;;;;;5118804;28;20096;-74
2023/01/28 08:06:36;;;;;;;14.52;8.52;;;3.90;99.90;;;;;;5117492;28;20046;-74
2023/01/28 08:09:04;;;;;;;13.25;8.07;;;4.00;99.90;;;;;;5118427;28;20424;-74
2023/01/28 08:11:31;;;;;;;13.52;8.07;;;4.00;99.90;;;;;;5118307;28;20122;-74
2023/01/28 08:13:57;;;;;;;15.60;8.88;;;4.00;99.90;;;;;;5118379;28;20044;-74
2023/01/28 08:16:23;;;;;;;15.60;9.40;;;4.00;99.90;;;;;;5118643;28;20061;-73
2023/01/28 08:18:52;;;;;;;13.63;8.82;;;3.90;99.90;;;;;;5118553;27;20035;-74
2023/01/28 08:21:17;;;;;;;15.38;9.70;;;3.80;99.90;;;;;;5118373;28;20496;-74
2023/01/28 08:23:43;;;;;;;15.52;9.45;;;3.80;99.90;;;;;;5118164;28;20052;-73
2023/01/28 08:26:09;;;;;;;15.68;9.77;;;3.70;99.90;;;;;;5118111;28;20047;-74
2023/01/28 08:28:34;;;;;;;14.35;9.88;;;3.80;99.90;;;;;;5118330;28;20050;-74
2023/01/28 08:31:01;;;;;;;12.27;8.00;;;3.90;99.90;;;;;;5118282;28;20444;-74
2023/01/28 08:33:26;;;;;;;15.55;9.23;;;3.90;99.90;;;;;;5116446;28;20044;-74
2023/01/28 08:35:52;;;;;;;13.93;8.90;;;4.00;99.90;;;;;;5118210;28;20092;-74
2023/01/28 08:38:19;;;;;;;13.52;8.40;;;4.10;99.90;;;;;;5117394;28;20059;-74
2023/01/28 08:40:45;;;;;;;14.32;8.90;;;4.10;99.90;;;;;;5116352;28;20039;-74
2023/01/28 08:43:11;;;;;;;13.10;8.25;;;4.10;99.90;;;;;;5117362;28;20055;-74
2023/01/28 08:45:38;;;;;;;14.88;9.57;;;4.10;99.90;;;;;;5116754;28;20070;-74
2023/01/28 08:48:06;;;;;;;14.52;9.00;;;4.10;99.90;;;;;;5118060;28;20144;-73
2023/01/28 08:50:34;;;;;;;12.23;8.70;;;4.20;99.90;;;;;;5117970;28;20050;-74
2023/01/28 08:53:02;;;;;;;12.35;7.38;;;4.10;99.90;;;;;;5117838;28;20093;-73
2023/01/28 08:55:29;;;;;;;10.80;7.93;;;4.10;99.90;;;;;;5117869;28;20332;-74
2023/01/28 08:57:54;;;;;;;13.50;8.40;;;4.10;99.90;;;;;;5117846;28;20046;-73
2023/01/28 09:00:21;;;;;;;13.13;8.30;;;4.00;99.90;;;;;;5117499;28;20036;-73
2023/01/28 09:02:50;;;;;;;14.65;7.88;;;4.00;99.90;;;;;;5117103;28;20047;-74
2023/01/28 09:05:16;;;;;;;12.75;8.38;;;4.00;99.90;;;;;;5116605;28;20050;-71
2023/01/28 09:07:42;;;;;;;13.52;8.32;;;4.00;99.90;;;;;;5116458;28;20332;-74
2023/01/28 09:10:08;;;;;;;10.82;7.63;;;4.00;99.90;;;;;;5117318;27;20043;-71
2023/01/28 09:12:35;;;;;;;13.13;8.48;;;4.10;99.90;;;;;;5099259;28;20040;-69
2023/01/28 09:15:01;;;;;;;18.02;8.88;;;3.90;99.90;;;;;;5117556;28;20058;-71
2023/01/28 09:17:26;;;;;;;14.00;8.05;;;3.90;99.90;;;;;;5116266;28;20036;-72
2023/01/28 09:19:52;;;;;;;14.30;8.48;;;3.70;99.90;;;;;;5117553;28;20039;-70
2023/01/28 09:22:18;;;;;;;11.40;8.07;;;3.70;99.90;;;;;;5117470;27;20096;-71
2023/01/28 09:24:43;;;;;;;12.93;8.20;;;3.50;99.90;;;;;;5117445;28;20040;-71
2023/01/28 09:27:09;;;;;;;16.63;8.23;;;3.40;99.90;;;;;;5117393;28;20131;-71
2023/01/28 09:29:36;;;;;;;13.38;7.85;;;3.60;99.90;;;;;;5117365;28;20104;-72
2023/01/28 09:32:02;;;;;;;11.70;7.55;;;3.60;99.90;;;;;;5115114;28;20102;-71
2023/01/28 09:34:27;;;;;;;12.05;7.88;;;3.60;99.90;;;;;;5117068;28;20452;-71
2023/01/28 09:36:53;;;;;;;11.20;7.22;;;3.70;99.90;;;;;;5117301;28;20035;-72
2023/01/28 09:39:19;;;;;;;11.00;6.78;;;3.60;99.90;;;;;;5117267;28;20405;-72
2023/01/28 09:42:01;;;;;;;13.57;7.30;;;3.60;99.90;;;;;;5116967;28;20083;-72
2023/01/28 09:44:34;;;;;;;12.50;6.93;;;3.70;99.90;;;;;;5117271;28;20334;-72
2023/01/28 09:47:02;;;;;;;10.95;6.43;;;3.90;99.90;;;;;;5117285;28;20051;-73
2023/01/28 09:49:35;;;;;;;9.15;5.60;;;4.00;99.90;;;;;;5116975;28;20420;-71
2023/01/28 09:52:02;;;;;;;10.27;6.20;;;4.00;99.90;;;;;;5117115;28;20067;-70
2023/01/28 09:54:28;;;;;;;10.02;6.20;;;4.20;99.90;;;;;;5115416;28;20100;-70
2023/01/28 09:57:04;;;;;;;10.82;6.47;;;4.20;99.90;;;;;;5117100;28;20039;-70
2023/01/28 09:59:32;;;;;;;;;;;4.30;99.90;;;;;;5117306;28;20405;-70
2023/01/28 10:02:00;;;;;;;10.65;6.38;;;4.40;99.90;;;;;;5115355;28;20376;-69
2023/01/28 10:04:39;;;;;;;14.70;6.55;;;4.30;99.90;;;;;;5116742;28;20409;-69
2023/01/28 10:07:05;;;;;;;;;;;4.10;99.90;;;;;;5116242;28;20039;-69
2023/01/28 10:09:55;;;;;;;10.93;6.77;;;4.20;99.90;;;;;;5116890;28;20014;-69
2023/01/28 10:12:26;;;;;;;10.20;6.78;;;4.20;99.90;;;;;;5115811;28;20040;-72
2023/01/28 10:14:58;;;;;;;10.52;7.03;;;4.30;99.90;;;;;;5117004;28;20043;-70
2023/01/28 10:17:30;;;;;;;10.02;6.22;;;4.10;99.90;;;;;;5116633;28;20416;-70
2023/01/28 10:20:01;;;;;;;9.90;6.85;;;4.20;99.90;;;;;;5115876;28;20393;-72
2023/01/28 10:22:35;;;;;;;11.30;6.60;;;4.30;99.90;;;;;;5116892;28;20048;-71
2023/01/28 10:25:06;;;;;;;12.32;7.57;;;4.40;99.90;;;;;;5116957;28;20294;-72
2023/01/28 10:27:34;;;;;;;10.50;6.53;;;4.50;99.90;;;;;;5116871;28;20044;-74
2023/01/28 10:30:18;;;;;;;10.30;7.03;;;4.60;99.90;;;;;;5115655;28;20492;-73
2023/01/28 10:32:56;;;;;;;11.15;7.18;;;4.90;99.90;;;;;;5116305;28;20043;-67
2023/01/28 10:35:22;;;;;;;10.55;6.60;;;5.30;99.90;;;;;;5116504;28;20035;-71
2023/01/28 10:37:50;;;;;;;11.50;6.90;;;5.60;99.90;;;;;;5116771;28;20043;-68
2023/01/28 10:40:19;;;;;;;11.45;6.50;;;5.80;99.90;;;;;;5116749;28;20412;-68
2023/01/28 10:42:44;;;;;;;11.85;7.07;;;6.00;99.90;;;;;;5116329;28;20112;-68
2023/01/28 10:45:16;;;;;;;10.45;6.60;;;6.30;99.90;;;;;;5119281;28;20440;-68
2023/01/28 10:48:08;;;;;;;10.05;5.85;;;6.50;99.60;;;;;;5101162;28;20058;-68
2023/01/28 10:50:36;;;;;;;11.35;5.85;;;6.10;99.90;;;;;;5109933;28;20043;-69
2023/01/28 10:53:04;;;;;;;8.18;5.82;;;6.50;99.90;;;;;;5116211;28;20104;-68
2023/01/28 10:55:44;;;;;;;9.85;5.85;;;6.80;99.70;;;;;;5116636;28;20396;-68
2023/01/28 10:58:25;;;;;;;10.45;6.40;;;6.90;99.50;;;;;;5099636;28;20033;-68
2023/01/28 11:01:12;;;;;;;8.88;6.57;;;6.90;99.30;;;;;;5099522;28;20299;-68
2023/01/28 11:03:39;;;;;;;;;;;7.20;99.60;;;;;;5099338;28;20399;-68
2023/01/28 11:06:04;;;;;;;8.77;6.03;;;7.10;99.10;;;;;;5099331;28;20193;-71
2023/01/28 11:08:42;;;;;;;10.25;6.45;;;6.80;99.20;;;;;;5107113;28;20046;-68
2023/01/28 11:11:13;;;;;;;8.15;5.65;;;6.80;99.40;;;;;;5118490;28;20428;-68
2023/01/28 11:13:50;;;;;;;9.02;5.55;;;6.80;99.40;;;;;;5119628;28;20035;-68
2023/01/28 11:16:17;;;;;;;11.00;5.88;;;6.80;99.50;;;;;;5119840;28;20032;-68
2023/01/28 11:19:05;;;;;;;10.23;6.10;;;6.60;99.20;;;;;;5119457;28;20421;-68
2023/01/28 11:21:33;;;;;;;8.90;5.55;;;6.30;99.60;;;;;;5119396;28;20036;-68
2023/01/28 11:24:13;;;;;;;10.02;6.28;;;6.50;99.80;;;;;;5119389;28;20043;-68
2023/01/28 11:26:44;;;;;;;10.68;6.90;;;6.60;99.60;;;;;;5118686;28;20048;-68
2023/01/28 11:29:31;;;;;;;11.90;6.53;;;6.70;99.60;;;;;;5119590;28;20043;-68
2023/01/28 11:31:58;;;;;;;10.18;6.32;;;6.30;99.50;;;;;;5117740;28;20043;-68
2023/01/28 11:34:27;;;;;;;9.20;6.28;;;6.30;99.80;;;;;;5119453;28;20039;-68
2023/01/28 11:37:17;;;;;;;13.57;7.22;;;6.20;99.90;;;;;;5119117;28;20467;-68
2023/01/28 11:39:43;;;;;;;12.13;6.57;;;6.00;99.90;;;;;;5119371;28;20038;-68
2023/01/28 11:42:16;;;;;;;9.15;6.78;;;6.00;99.90;;;;;;5119017;28;20052;-68
2023/01/28 11:44:42;;;;;;;11.88;6.68;;;5.90;99.90;;;;;;5119274;28;20436;-68
2023/01/28 11:47:27;;;;;;;11.18;6.75;;;6.00;99.90;;;;;;5118905;28;20040;-68
2023/01/28 11:50:13;;;;;;;9.80;6.30;;;6.20;99.90;;;;;;5119144;28;20077;-68
2023/01/28 11:53:00;;;;;;;13.50;5.40;;;6.20;99.90;;;;;;5119083;28;20337;-68
2023/01/28 11:55:55;;;;;;;10.55;6.07;;;6.50;99.90;;;;;;5118676;28;20048;-68
2023/01/28 11:58:58;;;;;;;11.02;6.60;;;6.30;99.70;;;;;;5108500;27;20416;-68
2023/01/28 12:01:39;;;;;;;10.32;6.20;;;6.10;99.80;;;;;;5118875;28;20035;-68
2023/01/28 12:04:23;;;;;;;10.43;6.57;;;6.10;99.90;;;;;;5117499;28;20032;-67
2023/01/28 12:07:13;;;;;;;11.23;7.07;;;6.00;99.90;;;;;;5118554;27;20440;-67
2023/01/28 12:10:01;;;;;;;12.15;7.10;;;6.20;99.90;;;;;;5118529;28;20123;-68
2023/01/28 12:12:49;;;;;;;13.15;6.68;;;6.00;99.90;;;;;;5118638;28;20047;-68
2023/01/28 12:15:26;;;;;;;10.05;6.95;;;6.10;99.90;;;;;;5118663;28;20036;-67
2023/01/28 12:18:07;;;;;;;11.25;7.15;;;5.90;99.90;;;;;;5118408;28;20077;-68
2023/01/28 12:20:57;;;;;;;13.32;7.40;;;5.80;99.90;;;;;;5118585;27;20031;-67
2023/01/28 12:24:06;;;;;;;12.65;7.20;;;5.70;99.90;;;;;;5118516;28;20047;-67
2023/01/28 12:26:49;;;;;;;11.55;6.88;;;5.70;99.90;;;;;;5118506;28;20105;-68
2023/01/28 12:29:40;;;;;;;11.30;7.03;;;5.80;99.90;;;;;;5118203;28;20050;-68
2023/01/28 12:32:20;;;;;;;11.40;7.05;;;5.70;99.90;;;;;;5116628;28;20039;-67
2023/01/28 12:35:10;;;;;;;12.77;7.95;;;5.90;99.90;;;;;;5118312;28;20097;-68
2023/01/28 12:37:58;;;;;;;13.32;7.47;;;6.00;99.90;;;;;;5118316;28;20123;-67
2023/01/28 12:40:37;;;;;;;14.85;7.93;;;5.90;99.90;;;;;;5118270;28;20061;-67
2023/01/28 12:43:38;;;;;;;12.07;7.32;;;5.70;99.90;;;;;;5117810;28;20055;-67
2023/01/28 12:46:15;;;;;;;12.65;7.72;;;6.20;99.90;;;;;;5116646;28;20051;-68
2023/01/28 12:49:06;;;;;;;14.15;8.25;;;6.50;99.90;;;;;;5118035;28;20043;-68
2023/01/28 12:51:56;;;;;;;12.13;7.57;;;6.90;99.90;;;;;;5117718;28;20035;-68
2023/01/28 12:54:30;;;;;;;13.02;7.70;;;6.90;99.80;;;;;;5117937;28;20047;-67
2023/01/28 12:56:56;;;;;;;13.15;6.82;;;7.50;99.80;;;;;;5117859;28;20047;-67
2023/01/28 12:59:35;;;;;;;11.02;7.20;;;8.40;99.60;;;;;;5117803;28;20047;-68
2023/01/28 13:02:10;;;;;;;10.75;6.95;;;8.60;98.70;;;;;;5117218;28;20432;-67
2023/01/28 13:04:55;;;;;;;11.55;7.68;;;9.00;98.80;;;;;;5117507;28;20490;-68
2023/01/28 13:07:41;;;;;;;11.13;7.70;;;9.80;97.80;;;;;;5117004;28;20037;-68
2023/01/28 13:10:37;;;;;;;13.70;8.32;;;9.10;97.60;;;;;;5099401;28;20092;-67
2023/01/28 13:13:04;;;;;;;10.45;6.70;;;9.00;98.10;;;;;;5117514;28;20130;-67
2023/01/28 13:15:31;;;;;;;12.05;6.30;;;9.20;98.20;;;;;;5117265;28;20039;-71
2023/01/28 13:18:06;;;;;;;11.45;7.38;;;9.90;98.10;;;;;;5117513;28;20042;-71
2023/01/28 13:20:44;;;;;;;12.75;7.13;;;10.00;97.60;;;;;;5116235;28;20329;-70
2023/01/28 13:23:24;;;;;;;10.75;6.70;;;10.20;97.40;;;;;;5116552;28;20075;-71
2023/01/28 13:25:54;;;;;;;13.27;6.78;;;9.20;97.60;;;;;;5117461;28;20036;-71
2023/01/28 13:28:38;;;;;;;11.65;7.10;;;8.90;97.80;;;;;;5117391;28;20332;-71
2023/01/28 13:31:16;;;;;;;10.32;6.93;;;8.90;98.00;;;;;;5117407;28;20093;-71
2023/01/28 13:33:45;;;;;;;11.25;6.45;;;8.80;98.00;;;;;;5115363;28;20048;-71
2023/01/28 13:36:16;;;;;;;11.85;7.18;;;8.70;98.30;;;;;;5117339;28;20043;-72
2023/01/28 13:38:44;;;;;;;12.00;6.15;;;8.60;98.10;;;;;;5116961;28;20069;-72
2023/01/28 13:41:09;;;;;;;11.23;6.70;;;8.30;98.30;;;;;;5117070;28;20058;-72
2023/01/28 13:43:36;;;;;;;13.32;6.43;;;8.00;98.50;;;;;;5117255;28;20047;-72